Startpagina
METAR-TAF:

METAR-TAF

Vliegvelden :

Rock Springs - Sweetwater County Airport

Rock Springs, Wyoming, Verenigde Staten

breedte: 41-35-39N, lengte: 109-03-55W, hoogte: 2060 m

Actueel weer

Dit bericht is 27 minuten geleden gemaakt, om 15:54 UTC
Wind 15 kt uit het westen
Temperatuur 7°C
Vochtigheid 57%
Druk 1027 hPa
Zicht: 16.1 km
Onbewolkt

METAR: KRKS 181554Z AUTO 27015KT 10SM CLR 07/M01 A3033 RMK AO2 SLP252 T00721011

Tijdstip: 10:21 (16:21 UTC)

Verwachting

Dit bericht is 4 uur en het 52 minuten geleden gemaakt, om 11:29 UTC
Verwachting geldig van 18 om 12 UTC tot 19 om 12 UTC
Wind 17 kt uit het westzuidwesten
Zicht: 10 km
Onbewolkt
Van 18 om 1900 UTC
Wind 13 kt uit het westen met uitschieters tot 23 kt
Zicht: 10 km
Onbewolkt
Van 19 om 0100 UTC
Wind 8 kt uit het westzuidwesten
Zicht: 10 km
Onbewolkt

TAF: KRKS 181129Z 1812/1912 25017KT P6SM SKC FM181900 27013G23KT P6SM SKC FM190100 24008KT P6SM SKC

Waarnemingen en weersverwachtingen van meer dan 4000 vliegvelden (METAR en TAF).

De beschikbare stations zijn de gele en rode punten op de kaart.

Ga met uw muis naar het station om de naam te zien.

Klik dan om waarnemingen en weersverwachtingen te zien.

kaart wijzigen: klik op de groene knoppen met een zwart kruis om in te zoomen, op de groene knop met een streepje om uit te zoomen of op de groene pijlen voor aangrenzende kaarten.


METAR-TAF: